Time;durP1;ratioP1;P1;durP2;ratioP2;P2;SDS_P1;SDS_P2;PMS_P1;PMS_P2;Temp;Humidity;BMP_temperature;BMP_pressure;BME280_temperature;BME280_humidity;BME280_pressure;Samples;Min_cycle;Max_cycle;Signal;HPM_P1;HPM_P2
2022/03/01 00:02:24;;;;;;;17.33;14.50;;;2.40;99.90;;;;;;5066934;28;20437;-54
2022/03/01 00:04:52;;;;;;;20.50;14.32;;;2.30;99.90;;;;;;5065542;28;20051;-56
2022/03/01 00:07:17;;;;;;;18.27;13.95;;;2.30;99.90;;;;;;5066412;28;20044;-55
2022/03/01 00:09:43;;;;;;;22.35;16.05;;;2.30;99.90;;;;;;5079970;28;20101;-55
2022/03/01 00:12:12;;;;;;;19.73;15.05;;;2.20;99.90;;;;;;5068431;28;20082;-52
2022/03/01 00:14:38;;;;;;;18.90;14.40;;;2.30;99.90;;;;;;5072292;28;20078;-55
2022/03/01 00:17:04;;;;;;;19.48;14.32;;;2.30;99.90;;;;;;5068199;28;20040;-56
2022/03/01 00:19:30;;;;;;;19.15;14.45;;;2.40;99.90;;;;;;5080728;28;20052;-55
2022/03/01 00:21:57;;;;;;;22.42;15.00;;;2.40;99.90;;;;;;5067836;28;20150;-56
2022/03/01 00:24:23;;;;;;;19.95;15.13;;;2.40;99.90;;;;;;5079798;28;20200;-55
2022/03/01 00:26:49;;;;;;;21.40;14.38;;;2.40;99.90;;;;;;5066061;28;20510;-55
2022/03/01 00:29:15;;;;;;;21.20;14.15;;;2.50;99.90;;;;;;5079729;28;20036;-55
2022/03/01 00:31:40;;;;;;;17.83;13.90;;;2.50;99.90;;;;;;5078503;28;20548;-54
2022/03/01 00:34:06;;;;;;;19.52;14.75;;;2.50;99.90;;;;;;5070068;28;20046;-54
2022/03/01 00:36:32;;;;;;;22.38;15.15;;;2.50;99.90;;;;;;5071116;28;20060;-55
2022/03/01 00:38:58;;;;;;;19.02;15.32;;;2.50;99.90;;;;;;5081557;28;20495;-55
2022/03/01 00:41:24;;;;;;;19.60;14.63;;;2.50;99.90;;;;;;5080601;28;20073;-49
2022/03/01 00:43:55;;;;;;;21.83;15.63;;;2.50;99.90;;;;;;5070043;28;20423;-51
2022/03/01 00:46:22;;;;;;;20.88;14.93;;;2.50;99.90;;;;;;5066198;28;20098;-55
2022/03/01 00:48:48;;;;;;;18.95;14.73;;;2.50;99.90;;;;;;5081333;28;20127;-55
2022/03/01 00:51:14;;;;;;;19.08;14.30;;;2.40;99.90;;;;;;5080549;28;20050;-55
2022/03/01 00:53:40;;;;;;;20.77;15.00;;;2.40;99.90;;;;;;5072463;28;20044;-55
2022/03/01 00:56:06;;;;;;;19.90;14.65;;;2.40;99.90;;;;;;5064594;28;20057;-56
2022/03/01 00:58:32;;;;;;;20.58;14.40;;;2.40;99.90;;;;;;5073016;28;20051;-55
2022/03/01 01:00:58;;;;;;;18.58;14.25;;;2.40;99.90;;;;;;5074536;28;20595;-55
2022/03/01 01:03:24;;;;;;;21.70;14.70;;;2.30;99.90;;;;;;5070717;28;20048;-54
2022/03/01 01:05:55;;;;;;;20.60;15.13;;;2.30;99.90;;;;;;5077894;28;20044;-55
2022/03/01 01:08:21;;;;;;;20.02;14.35;;;2.20;99.90;;;;;;5079181;28;20407;-55
2022/03/01 01:10:48;;;;;;;22.23;16.15;;;2.20;99.90;;;;;;5073003;28;20060;-56
2022/03/01 01:13:14;;;;;;;20.60;15.07;;;2.00;99.90;;;;;;5054717;28;20414;-53
2022/03/01 01:15:46;;;;;;;20.83;15.23;;;2.00;99.90;;;;;;5072988;28;20144;-55
2022/03/01 01:18:12;;;;;;;21.17;15.38;;;1.90;99.90;;;;;;5077684;28;20095;-51
2022/03/01 01:20:38;;;;;;;25.65;15.88;;;1.90;99.90;;;;;;5067675;28;20056;-55
2022/03/01 01:23:05;;;;;;;23.60;16.77;;;1.80;99.90;;;;;;5073225;28;20051;-55
2022/03/01 01:25:31;;;;;;;22.45;15.93;;;1.80;99.90;;;;;;5059217;28;20048;-53
2022/03/01 01:27:59;;;;;;;20.30;14.95;;;1.70;99.90;;;;;;5072769;28;20052;-54
2022/03/01 01:30:27;;;;;;;24.60;15.70;;;1.70;99.90;;;;;;5080777;28;20052;-55
2022/03/01 01:32:53;;;;;;;23.55;15.27;;;1.70;99.90;;;;;;5077207;28;20059;-55
2022/03/01 01:35:22;;;;;;;22.23;16.05;;;1.70;99.90;;;;;;5080428;28;20040;-55
2022/03/01 01:37:49;;;;;;;20.85;15.18;;;1.70;99.90;;;;;;5077046;28;20396;-55
2022/03/01 01:40:18;;;;;;;20.67;15.25;;;1.70;99.90;;;;;;5069083;28;20048;-55
2022/03/01 01:42:45;;;;;;;20.67;15.93;;;1.70;99.90;;;;;;5065569;28;20110;-55
2022/03/01 01:45:11;;;;;;;22.05;16.27;;;1.70;99.90;;;;;;5069542;28;20048;-55
2022/03/01 01:47:37;;;;;;;20.20;15.95;;;1.70;99.90;;;;;;5068578;28;20044;-56
2022/03/01 01:50:04;;;;;;;22.20;15.90;;;1.60;99.90;;;;;;5064034;28;20098;-55
2022/03/01 01:52:30;;;;;;;22.45;15.60;;;1.60;99.90;;;;;;5076440;28;20516;-54
2022/03/01 01:54:56;;;;;;;22.42;15.02;;;1.60;99.90;;;;;;5080374;28;20542;-55
2022/03/01 01:57:23;;;;;;;19.38;15.20;;;1.70;99.90;;;;;;5078889;28;20049;-55
2022/03/01 01:59:50;;;;;;;20.75;16.02;;;1.70;99.90;;;;;;5079536;28;20772;-55
2022/03/01 02:02:18;;;;;;;23.20;15.13;;;1.70;99.90;;;;;;5067233;28;20060;-56
2022/03/01 02:04:44;;;;;;;21.60;15.88;;;1.70;99.90;;;;;;5064881;28;20122;-55
2022/03/01 02:07:11;;;;;;;21.27;15.85;;;1.80;99.90;;;;;;5063728;28;20059;-55
2022/03/01 02:09:37;;;;;;;22.80;15.45;;;1.80;99.90;;;;;;5063191;28;20098;-55
2022/03/01 02:12:04;;;;;;;19.48;15.82;;;1.90;99.90;;;;;;5076806;28;20056;-55
2022/03/01 02:14:35;;;;;;;20.25;15.43;;;1.90;99.90;;;;;;5058508;28;20057;-55
2022/03/01 02:17:05;;;;;;;22.27;16.15;;;1.90;99.90;;;;;;5061400;28;20045;-55
2022/03/01 02:19:31;;;;;;;20.52;15.98;;;1.90;99.90;;;;;;5082171;28;20189;-55
2022/03/01 02:21:57;;;;;;;24.10;16.10;;;1.90;99.90;;;;;;5068774;28;20082;-55
2022/03/01 02:24:26;;;;;;;23.42;16.10;;;2.00;99.90;;;;;;5083314;28;20055;-55
2022/03/01 02:27:03;;;;;;;22.77;16.67;;;1.90;99.90;;;;;;5081574;28;20732;-55
2022/03/01 02:29:29;;;;;;;23.13;16.42;;;1.90;99.90;;;;;;5071829;28;20527;-54
2022/03/01 02:31:57;;;;;;;20.02;14.48;;;2.00;99.90;;;;;;5079100;28;20056;-55
2022/03/01 02:34:24;;;;;;;23.55;16.08;;;2.00;99.90;;;;;;5072186;28;20049;-55
2022/03/01 02:36:50;;;;;;;21.00;14.48;;;2.10;99.90;;;;;;5067989;28;20552;-55
2022/03/01 02:39:16;;;;;;;17.95;14.80;;;2.10;99.90;;;;;;5071105;28;20132;-55
2022/03/01 02:41:44;;;;;;;25.00;15.75;;;2.10;99.90;;;;;;5078579;28;20048;-56
2022/03/01 02:44:11;;;;;;;21.23;15.18;;;2.10;99.90;;;;;;5081956;28;20055;-53
2022/03/01 02:46:38;;;;;;;22.60;15.45;;;2.10;99.90;;;;;;5062974;28;20032;-54
2022/03/01 02:49:06;;;;;;;21.83;15.80;;;2.10;99.90;;;;;;5081386;28;20075;-55
2022/03/01 02:51:32;;;;;;;22.17;14.82;;;2.10;99.90;;;;;;5071998;28;20044;-55
2022/03/01 02:53:58;;;;;;;22.00;16.13;;;2.10;99.90;;;;;;5077296;28;20044;-55
2022/03/01 02:56:24;;;;;;;18.08;14.38;;;2.10;99.90;;;;;;5071493;28;20058;-55
2022/03/01 02:58:49;;;;;;;21.65;14.75;;;2.20;99.90;;;;;;5083517;28;20078;-55
2022/03/01 03:01:15;;;;;;;21.05;15.35;;;2.20;99.90;;;;;;5078723;28;20051;-55
2022/03/01 03:03:41;;;;;;;22.70;16.02;;;2.20;99.90;;;;;;5074456;28;20427;-55
2022/03/01 03:06:07;;;;;;;24.70;15.80;;;2.30;99.90;;;;;;5070939;28;20055;-55
2022/03/01 03:08:33;;;;;;;22.17;14.93;;;2.30;99.90;;;;;;5077034;28;20460;-56
2022/03/01 03:10:59;;;;;;;21.75;15.13;;;2.30;99.90;;;;;;5075185;28;20032;-55
2022/03/01 03:13:25;;;;;;;24.95;15.18;;;2.30;99.90;;;;;;5071786;28;20143;-49
2022/03/01 03:15:52;;;;;;;19.30;15.35;;;2.30;99.90;;;;;;5077159;28;20233;-55
2022/03/01 03:18:19;;;;;;;19.13;14.68;;;2.30;99.90;;;;;;5082727;28;20720;-55
2022/03/01 03:20:45;;;;;;;24.65;15.68;;;2.40;99.90;;;;;;5075803;28;20533;-54
2022/03/01 03:23:11;;;;;;;20.40;15.00;;;2.40;99.90;;;;;;5076088;28;20083;-54
2022/03/01 03:25:37;;;;;;;19.75;16.02;;;2.40;99.90;;;;;;5069745;28;20547;-56
2022/03/01 03:28:03;;;;;;;20.90;15.30;;;2.40;99.90;;;;;;5061628;28;20048;-55
2022/03/01 03:30:29;;;;;;;22.15;15.98;;;2.40;99.90;;;;;;5081701;28;20074;-54
2022/03/01 03:32:55;;;;;;;24.25;17.05;;;2.40;99.90;;;;;;5078780;28;20109;-55
2022/03/01 03:35:21;;;;;;;24.40;15.50;;;2.40;99.90;;;;;;5082342;28;20404;-55
2022/03/01 03:37:47;;;;;;;21.33;16.35;;;2.30;99.90;;;;;;5082100;28;20573;-55
2022/03/01 03:40:13;;;;;;;25.08;16.13;;;2.30;99.90;;;;;;5080597;28;20048;-54
2022/03/01 03:42:39;;;;;;;21.50;16.33;;;2.30;99.90;;;;;;5081292;28;20052;-55
2022/03/01 03:45:06;;;;;;;20.48;15.02;;;2.30;99.90;;;;;;5080966;28;20070;-55
2022/03/01 03:47:32;;;;;;;19.00;15.35;;;2.30;99.90;;;;;;5074929;28;20047;-55
2022/03/01 03:49:58;;;;;;;20.48;15.75;;;2.30;99.90;;;;;;5063589;28;20052;-55
2022/03/01 03:52:23;;;;;;;19.00;14.98;;;2.30;99.90;;;;;;5076235;28;20063;-56
2022/03/01 03:54:50;;;;;;;23.13;15.73;;;2.30;99.90;;;;;;5081138;28;20551;-56
2022/03/01 03:57:16;;;;;;;22.88;16.42;;;2.30;99.90;;;;;;5076761;28;20051;-55
2022/03/01 03:59:47;;;;;;;20.67;15.25;;;2.30;99.90;;;;;;5080723;28;20051;-55
2022/03/01 04:02:13;;;;;;;19.35;14.52;;;2.30;99.90;;;;;;5079092;28;20048;-55
2022/03/01 04:04:38;;;;;;;22.40;16.17;;;2.30;99.90;;;;;;5064172;28;20479;-55
2022/03/01 04:07:05;;;;;;;19.40;14.70;;;2.40;99.90;;;;;;5080814;28;20499;-54
2022/03/01 04:09:31;;;;;;;20.70;15.57;;;2.40;99.90;;;;;;5082128;28;20437;-55
2022/03/01 04:11:57;;;;;;;22.63;15.65;;;2.40;99.90;;;;;;5079580;28;20147;-55
2022/03/01 04:14:23;;;;;;;20.73;15.82;;;2.40;99.90;;;;;;5081138;28;20509;-55
2022/03/01 04:16:49;;;;;;;19.92;15.82;;;2.40;99.90;;;;;;5080548;28;20044;-55
2022/03/01 04:19:18;;;;;;;23.88;15.70;;;2.40;99.90;;;;;;5083310;28;20059;-54
2022/03/01 04:21:53;;;;;;;23.00;16.23;;;2.50;99.90;;;;;;5082802;28;20853;-55
2022/03/01 04:24:19;;;;;;;20.85;16.10;;;2.40;99.90;;;;;;5082839;28;20130;-56
2022/03/01 04:26:45;;;;;;;20.73;15.75;;;2.40;99.90;;;;;;5081607;28;20043;-55
2022/03/01 04:29:10;;;;;;;19.80;14.60;;;2.40;99.90;;;;;;5081663;28;20047;-49
2022/03/01 04:31:38;;;;;;;21.77;15.30;;;2.40;99.90;;;;;;5081255;28;20086;-54
2022/03/01 04:34:03;;;;;;;25.60;15.70;;;2.40;99.90;;;;;;5080323;28;20043;-55
2022/03/01 04:36:29;;;;;;;20.33;14.93;;;2.50;99.90;;;;;;5079989;28;20066;-56
2022/03/01 04:38:55;;;;;;;21.73;16.05;;;2.50;99.90;;;;;;5080100;28;20040;-56
2022/03/01 04:41:21;;;;;;;20.13;15.88;;;2.50;99.90;;;;;;5080891;28;20062;-56
2022/03/01 04:43:47;;;;;;;25.77;15.18;;;2.50;99.90;;;;;;5080275;28;20048;-55
2022/03/01 04:46:13;;;;;;;22.35;15.88;;;2.50;99.90;;;;;;5080845;28;20508;-54
2022/03/01 04:48:38;;;;;;;20.45;15.00;;;2.50;99.90;;;;;;5080890;28;20102;-55
2022/03/01 04:51:04;;;;;;;24.20;15.55;;;2.50;99.90;;;;;;5068554;28;20040;-55
2022/03/01 04:53:33;;;;;;;21.45;15.65;;;2.50;99.90;;;;;;5077121;28;20522;-55
2022/03/01 04:55:59;;;;;;;22.25;16.02;;;2.50;99.90;;;;;;5076394;28;20447;-56
2022/03/01 04:58:24;;;;;;;20.58;15.93;;;2.50;99.90;;;;;;5079995;28;20051;-55
2022/03/01 05:00:50;;;;;;;22.02;16.23;;;2.50;99.90;;;;;;5079486;28;20048;-55
2022/03/01 05:03:16;;;;;;;21.95;16.17;;;2.50;99.90;;;;;;5071158;28;20488;-54
2022/03/01 05:05:41;;;;;;;21.60;16.08;;;2.50;99.90;;;;;;5069467;28;20426;-55
2022/03/01 05:08:08;;;;;;;22.33;15.98;;;2.50;99.90;;;;;;5081009;28;20397;-55
2022/03/01 05:10:33;;;;;;;21.00;16.08;;;2.50;99.90;;;;;;5077968;28;20485;-55
2022/03/01 05:13:01;;;;;;;20.45;15.57;;;2.50;99.90;;;;;;5070254;28;20047;-55
2022/03/01 05:15:28;;;;;;;23.73;16.58;;;2.50;99.90;;;;;;5068708;28;20127;-54
2022/03/01 05:17:55;;;;;;;23.13;16.20;;;2.60;99.90;;;;;;5059898;28;20473;-55
2022/03/01 05:20:22;;;;;;;22.35;16.83;;;2.50;99.90;;;;;;5059696;28;20063;-55
2022/03/01 05:22:48;;;;;;;18.92;15.18;;;2.60;99.90;;;;;;5060517;28;20040;-55
2022/03/01 05:25:18;;;;;;;21.85;15.85;;;2.60;99.90;;;;;;5061508;28;20044;-54
2022/03/01 05:27:46;;;;;;;23.65;15.75;;;2.60;99.90;;;;;;5062668;28;20048;-55
2022/03/01 05:30:13;;;;;;;23.20;15.98;;;2.50;99.90;;;;;;5065247;28;20060;-54
2022/03/01 05:32:44;;;;;;;21.80;15.77;;;2.50;99.90;;;;;;5061919;28;20047;-51
2022/03/01 05:35:31;;;;;;;19.88;15.68;;;2.50;99.90;;;;;;5061609;28;20052;-53
2022/03/01 05:37:57;;;;;;;22.13;16.52;;;2.50;99.90;;;;;;5032369;28;20057;-55
2022/03/01 05:40:29;;;;;;;24.13;16.90;;;2.40;99.90;;;;;;5028391;28;20107;-55
2022/03/01 05:42:55;;;;;;;22.13;16.02;;;2.50;99.90;;;;;;5022845;28;20552;-55
2022/03/01 05:45:21;;;;;;;25.27;17.27;;;2.50;99.90;;;;;;5036084;28;20041;-55
2022/03/01 05:47:48;;;;;;;20.88;16.42;;;2.50;99.90;;;;;;5033708;28;20061;-54
2022/03/01 05:50:16;;;;;;;20.67;15.93;;;2.50;99.90;;;;;;5037228;28;20530;-55
2022/03/01 05:52:42;;;;;;;22.77;15.63;;;2.50;99.90;;;;;;5025905;28;20065;-55
2022/03/01 05:55:09;;;;;;;24.35;16.10;;;2.50;99.90;;;;;;5013293;28;20064;-55
2022/03/01 05:57:36;;;;;;;24.02;16.35;;;2.50;99.90;;;;;;5025586;28;20088;-55
2022/03/01 06:00:08;;;;;;;22.58;16.98;;;2.50;99.90;;;;;;5040069;28;20128;-55
2022/03/01 06:02:34;;;;;;;20.33;15.50;;;2.50;99.90;;;;;;5019837;28;20554;-55
2022/03/01 06:04:59;;;;;;;23.65;16.63;;;2.50;99.90;;;;;;5031964;28;20049;-52
2022/03/01 06:07:25;;;;;;;24.67;16.15;;;2.40;99.90;;;;;;5027958;28;20340;-55
2022/03/01 06:09:51;;;;;;;22.38;16.30;;;2.50;99.90;;;;;;5074961;28;20564;-55
2022/03/01 06:12:17;;;;;;;20.10;14.77;;;2.50;99.90;;;;;;5079406;28;20048;-54
2022/03/01 06:14:43;;;;;;;21.90;16.17;;;2.50;99.90;;;;;;5073908;28;20626;-54
2022/03/01 06:17:09;;;;;;;23.25;16.75;;;2.60;99.90;;;;;;5067177;28;20576;-54
2022/03/01 06:19:35;;;;;;;20.95;16.08;;;2.60;99.90;;;;;;5074071;28;20078;-55
2022/03/01 06:22:01;;;;;;;23.38;16.48;;;2.60;99.90;;;;;;5081002;28;20052;-55
2022/03/01 06:24:28;;;;;;;20.52;16.00;;;2.60;99.90;;;;;;5064241;28;20044;-55
2022/03/01 06:26:53;;;;;;;23.98;15.70;;;2.70;99.90;;;;;;5063184;28;20542;-55
2022/03/01 06:29:19;;;;;;;21.60;16.73;;;2.80;99.90;;;;;;5074414;28;20052;-54
2022/03/01 06:31:45;;;;;;;23.90;15.80;;;2.80;99.90;;;;;;5064920;28;20071;-55
2022/03/01 06:34:11;;;;;;;23.85;16.15;;;2.80;99.90;;;;;;5072920;28;20059;-53
2022/03/01 06:36:36;;;;;;;22.10;16.65;;;2.80;99.90;;;;;;5068266;28;20505;-54
2022/03/01 06:39:03;;;;;;;22.50;16.25;;;2.90;99.90;;;;;;5088332;28;20048;-54
2022/03/01 06:41:29;;;;;;;21.00;17.38;;;2.90;99.90;;;;;;5071722;28;20044;-61
2022/03/01 06:43:54;;;;;;;21.92;16.00;;;2.90;99.90;;;;;;5072779;28;20392;-55
2022/03/01 06:46:20;;;;;;;21.70;16.95;;;2.90;99.90;;;;;;5064463;28;20075;-55
2022/03/01 06:48:48;;;;;;;22.77;16.73;;;2.90;99.90;;;;;;5067776;28;20156;-52
2022/03/01 06:51:14;;;;;;;20.73;15.63;;;2.90;99.90;;;;;;5074495;28;20048;-54
2022/03/01 06:53:40;;;;;;;21.08;16.45;;;3.00;99.90;;;;;;5073806;28;20454;-50
2022/03/01 06:56:05;;;;;;;22.85;16.98;;;3.10;99.90;;;;;;5078396;28;20324;-55
2022/03/01 06:58:32;;;;;;;21.35;15.82;;;3.10;99.90;;;;;;5074943;28;20103;-55
2022/03/01 07:01:00;;;;;;;20.35;15.43;;;3.10;99.90;;;;;;5072735;28;20125;-55
2022/03/01 07:03:27;;;;;;;21.48;16.20;;;3.10;99.90;;;;;;5062943;28;20084;-55
2022/03/01 07:05:54;;;;;;;22.75;16.05;;;3.20;99.90;;;;;;5073560;28;20118;-55
2022/03/01 07:08:24;;;;;;;23.00;16.45;;;3.20;99.90;;;;;;5069141;28;20049;-51
2022/03/01 07:10:50;;;;;;;24.60;17.50;;;3.30;99.90;;;;;;5065531;28;20040;-54
2022/03/01 07:13:16;;;;;;;22.85;15.85;;;3.30;99.90;;;;;;5062277;28;20040;-55
2022/03/01 07:15:42;;;;;;;21.73;16.35;;;3.30;99.90;;;;;;5081218;28;20096;-55
2022/03/01 07:18:08;;;;;;;25.13;17.88;;;3.30;99.90;;;;;;5069401;28;20127;-54
2022/03/01 07:20:35;;;;;;;25.15;16.58;;;3.30;99.90;;;;;;5063206;28;20465;-54
2022/03/01 07:23:01;;;;;;;23.40;16.73;;;3.40;99.90;;;;;;5080582;28;20044;-52
2022/03/01 07:25:27;;;;;;;25.25;17.00;;;3.40;99.90;;;;;;5062777;28;20566;-54
2022/03/01 07:27:54;;;;;;;21.80;16.25;;;3.40;99.90;;;;;;5060674;28;20062;-54
2022/03/01 07:30:24;;;;;;;22.42;15.82;;;3.50;99.90;;;;;;5082662;28;20058;-55
2022/03/01 07:32:52;;;;;;;20.90;16.55;;;3.50;99.90;;;;;;5081667;28;20051;-55
2022/03/01 07:35:19;;;;;;;23.80;17.95;;;3.60;99.90;;;;;;5081223;28;20059;-55
2022/03/01 07:37:45;;;;;;;25.55;16.90;;;3.60;99.90;;;;;;5080412;28;20051;-54
2022/03/01 07:40:13;;;;;;;20.95;16.08;;;3.60;99.90;;;;;;5074204;28;20045;-55
2022/03/01 07:42:39;;;;;;;21.33;15.85;;;3.60;99.90;;;;;;5077740;28;20040;-55
2022/03/01 07:45:05;;;;;;;23.65;17.67;;;3.60;99.90;;;;;;5082465;28;20130;-55
2022/03/01 07:47:31;;;;;;;23.15;16.70;;;3.70;99.90;;;;;;5084854;28;20101;-55
2022/03/01 07:49:57;;;;;;;22.80;17.13;;;3.70;99.90;;;;;;5071564;28;20449;-60
2022/03/01 07:52:23;;;;;;;21.67;16.80;;;3.70;99.90;;;;;;5069321;28;20044;-54
2022/03/01 07:54:49;;;;;;;23.25;17.05;;;3.70;99.90;;;;;;5073299;28;20082;-55
2022/03/01 07:57:17;;;;;;;21.52;16.92;;;3.70;99.90;;;;;;5078196;28;20139;-55
2022/03/01 07:59:43;;;;;;;24.52;18.35;;;3.80;99.90;;;;;;5070401;28;20107;-54
2022/03/01 08:02:09;;;;;;;23.17;17.85;;;3.70;99.90;;;;;;5071667;28;20079;-53
2022/03/01 08:04:35;;;;;;;23.45;17.70;;;3.80;99.90;;;;;;5075130;28;20096;-55
2022/03/01 08:07:01;;;;;;;24.50;18.60;;;3.80;99.90;;;;;;5073754;28;20446;-54
2022/03/01 08:09:27;;;;;;;27.02;18.60;;;3.90;99.90;;;;;;5074784;28;20086;-55
2022/03/01 08:11:52;;;;;;;22.25;17.60;;;3.90;99.90;;;;;;5073537;28;20121;-55
2022/03/01 08:14:18;;;;;;;22.77;16.83;;;4.00;99.90;;;;;;5075389;28;20181;-55
2022/03/01 08:16:44;;;;;;;22.30;17.10;;;4.00;99.90;;;;;;5072594;28;20047;-54
2022/03/01 08:19:09;;;;;;;23.05;17.95;;;4.10;99.90;;;;;;5072787;28;20063;-54
2022/03/01 08:21:35;;;;;;;24.80;17.52;;;4.20;99.90;;;;;;5075438;28;20557;-55
2022/03/01 08:24:01;;;;;;;26.10;17.95;;;4.40;99.90;;;;;;5069854;28;20068;-54
2022/03/01 08:26:27;;;;;;;22.48;17.27;;;4.50;99.90;;;;;;5070851;28;20135;-54
2022/03/01 08:28:53;;;;;;;22.23;17.08;;;4.60;99.90;;;;;;5077046;28;20048;-56
2022/03/01 08:31:19;;;;;;;20.42;16.75;;;4.70;99.90;;;;;;5080716;28;20455;-55
2022/03/01 08:33:44;;;;;;;26.15;18.92;;;4.70;99.90;;;;;;5080474;28;20055;-54
2022/03/01 08:36:14;;;;;;;22.60;16.95;;;4.80;99.90;;;;;;5075874;28;20122;-54
2022/03/01 08:38:41;;;;;;;21.15;16.58;;;4.80;99.90;;;;;;5061925;28;20049;-51
2022/03/01 08:41:07;;;;;;;24.35;18.17;;;4.80;99.90;;;;;;5060831;28;20063;-55
2022/03/01 08:43:32;;;;;;;22.35;17.88;;;4.90;99.90;;;;;;5061965;28;20040;-56
2022/03/01 08:45:58;;;;;;;22.35;16.55;;;4.90;99.90;;;;;;5061420;28;20047;-55
2022/03/01 08:48:25;;;;;;;23.10;17.73;;;4.90;99.90;;;;;;5067847;28;20052;-55
2022/03/01 08:50:51;;;;;;;22.52;17.45;;;4.90;99.90;;;;;;5065507;28;20056;-54
2022/03/01 08:53:19;;;;;;;22.33;17.63;;;4.90;99.90;;;;;;5082163;28;20048;-55
2022/03/01 08:55:45;;;;;;;23.25;17.13;;;5.00;99.90;;;;;;5080724;28;20178;-55
2022/03/01 08:58:11;;;;;;;23.95;18.67;;;4.90;99.90;;;;;;5081176;28;20449;-56
2022/03/01 09:00:45;;;;;;;22.52;18.00;;;4.90;99.90;;;;;;5079454;28;20510;-55
2022/03/01 09:03:11;;;;;;;21.17;16.98;;;4.90;99.90;;;;;;5069895;28;20055;-55
2022/03/01 09:05:37;;;;;;;24.70;18.17;;;4.90;99.90;;;;;;5077912;28;20417;-56
2022/03/01 09:08:04;;;;;;;25.45;18.40;;;4.90;99.90;;;;;;5062545;28;20050;-55
2022/03/01 09:10:30;;;;;;;21.02;17.15;;;4.90;99.90;;;;;;5062168;28;20611;-55
2022/03/01 09:12:57;;;;;;;24.58;19.13;;;4.90;99.90;;;;;;5061904;28;20052;-55
2022/03/01 09:15:26;;;;;;;23.40;18.92;;;4.90;99.90;;;;;;5062318;28;20052;-56
2022/03/01 09:17:52;;;;;;;22.17;17.85;;;5.00;99.90;;;;;;5062341;28;20370;-55
2022/03/01 09:20:18;;;;;;;23.75;17.55;;;4.90;99.90;;;;;;5064168;28;20060;-55
2022/03/01 09:22:44;;;;;;;22.35;18.85;;;5.00;99.90;;;;;;5071627;28;20063;-55
2022/03/01 09:25:10;;;;;;;21.85;16.83;;;5.00;99.90;;;;;;5077875;28;20040;-55
2022/03/01 09:27:36;;;;;;;25.50;17.88;;;5.00;99.90;;;;;;5073857;28;20044;-54
2022/03/01 09:30:03;;;;;;;23.92;18.95;;;5.10;99.90;;;;;;5074859;28;20059;-55
2022/03/01 09:32:29;;;;;;;21.67;17.45;;;5.10;99.90;;;;;;5080694;28;20036;-55
2022/03/01 09:34:56;;;;;;;21.48;16.95;;;5.10;99.90;;;;;;5068958;28;20056;-55
2022/03/01 09:37:22;;;;;;;22.85;17.92;;;5.20;99.90;;;;;;5080297;28;20055;-56
2022/03/01 09:39:48;;;;;;;25.77;18.25;;;5.30;99.90;;;;;;5065722;28;20048;-55
2022/03/01 09:42:14;;;;;;;22.65;18.10;;;5.50;99.90;;;;;;5069541;28;20052;-55
2022/03/01 09:44:42;;;;;;;22.70;18.70;;;5.70;99.90;;;;;;5061921;28;20514;-55
2022/03/01 09:47:08;;;;;;;24.13;18.23;;;5.90;99.90;;;;;;5063872;28;20083;-55
2022/03/01 09:49:33;;;;;;;21.95;17.38;;;6.00;99.90;;;;;;5064939;28;20052;-56
2022/03/01 09:51:59;;;;;;;22.17;18.63;;;6.00;99.90;;;;;;5073561;28;20133;-56
2022/03/01 09:54:25;;;;;;;23.45;18.42;;;6.10;99.90;;;;;;5079718;28;20054;-56
2022/03/01 09:56:51;;;;;;;25.33;19.83;;;6.20;99.90;;;;;;5077389;28;20668;-56
2022/03/01 09:59:17;;;;;;;27.55;19.23;;;6.30;99.90;;;;;;5077164;28;20065;-56
2022/03/01 10:01:53;;;;;;;25.88;19.00;;;6.40;99.90;;;;;;5065640;28;20483;-54
2022/03/01 10:04:19;;;;;;;29.92;19.70;;;6.50;99.90;;;;;;5060954;28;20538;-56
2022/03/01 10:06:48;;;;;;;23.35;18.42;;;6.60;99.90;;;;;;5064454;28;20052;-55
2022/03/01 10:09:24;;;;;;;23.88;19.10;;;6.60;99.90;;;;;;5073093;28;20044;-54
2022/03/01 10:11:52;;;;;;;24.92;19.35;;;6.70;99.90;;;;;;5079837;28;20044;-53
2022/03/01 10:14:33;;;;;;;24.17;18.67;;;6.60;99.90;;;;;;5059695;28;20044;-55
2022/03/01 10:16:58;;;;;;;22.48;18.42;;;6.70;99.90;;;;;;5063673;28;20056;-55
2022/03/01 10:19:24;;;;;;;25.45;18.92;;;6.80;99.90;;;;;;5071709;28;20047;-55
2022/03/01 10:22:03;;;;;;;21.65;18.55;;;6.80;99.90;;;;;;5079314;28;20063;-56
2022/03/01 10:24:30;;;;;;;25.23;18.77;;;6.70;99.90;;;;;;5067958;28;20048;-56
2022/03/01 10:27:08;;;;;;;24.33;19.95;;;6.60;99.90;;;;;;5075400;28;20049;-56
2022/03/01 10:29:34;;;;;;;25.02;17.77;;;6.70;99.90;;;;;;5062100;28;20054;-57
2022/03/01 10:32:21;;;;;;;24.17;18.85;;;6.70;99.90;;;;;;5071404;28;20056;-56
2022/03/01 10:35:04;;;;;;;24.63;20.75;;;6.70;99.90;;;;;;5068562;28;20149;-55
2022/03/01 10:37:37;;;;;;;25.40;19.55;;;6.80;99.90;;;;;;5060405;28;20131;-56
2022/03/01 10:40:15;;;;;;;24.42;19.67;;;6.80;99.90;;;;;;5069780;28;20944;-56
2022/03/01 10:42:42;;;;;;;25.83;20.60;;;6.90;99.90;;;;;;5067979;28;20055;-56
2022/03/01 10:45:09;;;;;;;25.95;20.38;;;6.90;99.90;;;;;;5068120;28;20138;-55
2022/03/01 10:47:37;;;;;;;25.77;21.67;;;7.00;99.90;;;;;;5072148;28;20048;-56
2022/03/01 10:50:05;;;;;;;24.33;19.35;;;7.00;99.90;;;;;;5067971;28;20099;-56
2022/03/01 10:52:42;;;;;;;25.80;20.92;;;7.00;99.90;;;;;;5082682;28;20094;-56
2022/03/01 10:55:32;;;;;;;25.08;21.05;;;7.00;99.90;;;;;;5068129;28;20050;-53
2022/03/01 10:58:10;;;;;;;27.95;20.63;;;7.00;99.90;;;;;;5073860;28;20544;-55
2022/03/01 11:00:37;;;;;;;26.98;20.83;;;6.90;99.90;;;;;;5072219;28;20040;-55
2022/03/01 11:03:07;;;;;;;27.52;20.65;;;6.90;99.90;;;;;;5073573;28;20448;-55
2022/03/01 11:05:34;;;;;;;28.05;21.50;;;6.90;99.90;;;;;;5073897;28;20048;-55
2022/03/01 11:08:03;;;;;;;27.48;20.67;;;6.80;99.90;;;;;;5074530;28;20101;-55
2022/03/01 11:10:31;;;;;;;28.77;21.67;;;6.80;99.90;;;;;;5075694;28;20101;-56
2022/03/01 11:13:00;;;;;;;30.98;23.63;;;6.80;99.90;;;;;;5071623;28;20547;-55
2022/03/01 11:15:55;;;;;;;31.90;23.85;;;6.80;99.90;;;;;;5077268;28;20051;-45
2022/03/01 11:18:45;;;;;;;29.80;22.83;;;6.80;99.90;;;;;;5070771;28;20470;-55
2022/03/01 11:21:14;;;;;;;31.38;23.58;;;6.80;99.90;;;;;;5075775;28;20048;-56
2022/03/01 11:23:41;;;;;;;32.72;23.52;;;6.70;99.90;;;;;;5070222;28;20051;-56
2022/03/01 11:26:13;;;;;;;34.20;24.83;;;6.70;99.90;;;;;;5075876;28;20602;-55
2022/03/01 11:28:42;;;;;;;35.50;24.10;;;6.70;99.90;;;;;;5066170;28;20473;-55
2022/03/01 11:31:37;;;;;;;33.38;25.33;;;6.70;99.90;;;;;;5075099;28;20969;-56
2022/03/01 11:34:15;;;;;;;34.50;25.08;;;6.70;99.90;;;;;;4991496;28;20501;-54
2022/03/01 11:36:49;;;;;;;38.42;25.35;;;6.70;99.90;;;;;;4992817;28;20108;-56
2022/03/01 11:39:17;;;;;;;36.42;26.27;;;6.80;99.90;;;;;;4982749;28;20240;-56
2022/03/01 11:41:48;;;;;;;40.00;27.55;;;6.80;99.90;;;;;;4995509;28;20085;-57
2022/03/01 11:44:21;;;;;;;38.20;27.38;;;6.80;99.90;;;;;;4998836;28;20142;-58
2022/03/01 11:46:49;;;;;;;34.90;26.58;;;6.90;99.90;;;;;;4996946;28;20398;-57
2022/03/01 11:49:19;;;;;;;41.30;29.60;;;6.90;99.90;;;;;;4978171;28;20058;-56
2022/03/01 11:51:53;;;;;;;35.15;27.17;;;6.90;99.90;;;;;;4999183;28;20528;-56
2022/03/01 11:54:23;;;;;;;37.85;28.40;;;6.90;99.90;;;;;;4995432;28;20520;-52
2022/03/01 11:56:51;;;;;;;33.55;25.15;;;7.00;99.90;;;;;;4996185;28;20061;-54
2022/03/01 11:59:18;;;;;;;33.58;24.63;;;7.10;99.90;;;;;;4996243;28;20054;-56
2022/03/01 12:01:45;;;;;;;35.95;25.13;;;7.20;99.90;;;;;;4998375;28;20133;-57
2022/03/01 12:04:11;;;;;;;30.25;23.73;;;7.30;99.90;;;;;;4977420;28;20057;-56
2022/03/01 12:06:39;;;;;;;28.50;22.85;;;7.30;99.90;;;;;;4995856;28;20217;-56
2022/03/01 12:09:08;;;;;;;28.65;22.52;;;7.20;99.90;;;;;;4997666;28;20061;-56
2022/03/01 12:11:38;;;;;;;27.10;22.10;;;7.20;99.90;;;;;;5067688;28;20059;-51
2022/03/01 12:14:08;;;;;;;27.73;22.60;;;7.30;99.90;;;;;;5074321;28;20210;-54
2022/03/01 12:16:34;;;;;;;28.35;22.85;;;7.30;99.90;;;;;;5063535;28;20537;-55
2022/03/01 12:19:26;;;;;;;25.58;21.48;;;7.30;99.90;;;;;;5068612;28;20060;-57
2022/03/01 12:21:54;;;;;;;27.60;21.67;;;7.30;99.90;;;;;;5062579;28;20321;-57
2022/03/01 12:24:22;;;;;;;26.50;23.02;;;7.30;99.90;;;;;;5081341;28;20490;-56
2022/03/01 12:26:53;;;;;;;27.95;22.90;;;7.30;99.90;;;;;;5066990;28;20041;-56
2022/03/01 12:29:24;;;;;;;27.63;21.52;;;7.30;99.90;;;;;;5070656;28;20044;-52
2022/03/01 12:31:59;;;;;;;26.55;20.77;;;7.30;99.90;;;;;;5076325;28;20170;-45
2022/03/01 12:34:27;;;;;;;24.65;21.98;;;7.30;99.90;;;;;;5067662;28;20083;-57
2022/03/01 12:36:58;;;;;;;26.05;21.60;;;7.40;99.90;;;;;;5067428;28;20052;-57
2022/03/01 12:39:25;;;;;;;24.58;20.95;;;7.30;99.90;;;;;;5076445;28;20163;-56